Home > Products > Valid Products > MTR

000
SAGM31 PGUM 250254
MTRGUM
METAR PGUM 250254Z 14010G16KT 10SM FEW023 SCT049 32/23 A2995 RMK AO2
RAB43E54 SLP133 P0000 60000 T03170233 58010





000
SAGM31 PGUM 250055
MTRGUM
METAR PGUM 250054Z 09008KT 10SM SCT020 32/23 A2998 RMK AO2 SLP142
T03220233





000
SAGM31 PGUM 242355
MTRGUM
METAR PGUM 242354Z 09009KT 10SM SCT020 SCT028 32/24 A2998 RMK AO2
SLP143 T03170239 10317 20278 53007





000
SAGM31 PGUM 242255
MTRGUM
METAR PGUM 242254Z 11009KT 10SM FEW018 31/23 A2998 RMK AO2 SLP141
T03110233





000
SAGM31 PGUM 242154
MTRGUM
METAR PGUM 242154Z 11006KT 10SM FEW014 30/24 A2996 RMK AO2 SLP139
T03000239





000
SAGM31 PGUM 241850
MTRGUM
SPECI PGUM 241849Z 09004KT 10SM FEW016 SCT023 BKN028 28/24 A2992 RMK
AO2





000
SAGM31 PGUM 241802
MTRGUM
SPECI PGUM 241801Z 07004KT 10SM FEW027 SCT031 28/24 A2992 RMK AO2





000
SAGM31 PGUM 241737
MTRGUM
SPECI PGUM 241737Z 09003KT 10SM BKN027 28/24 A2993 RMK AO2





000
SAGM31 PGUM 241510
MTRGUM
SPECI PGUM 241510Z 08006KT 10SM FEW020 BKN032 29/24 A2993 RMK AO2





000
SAGM31 PGUM 241455
MTRGUM
METAR PGUM 241454Z 06005KT 10SM FEW021 BKN029 BKN035 29/24 A2994 RMK
AO2 SLP130 T02890239 56010





000
SAGM31 PGUM 241422
MTRGUM
SPECI PGUM 241421Z 07007KT 10SM SCT022 BKN027 29/24 A2995 RMK AO2





000
SAGM31 PGUM 241255
MTRGUM
METAR PGUM 241254Z 09005KT 10SM FEW020 29/24 A2997 RMK AO2 SLP140
T02890239





000
SAGM31 PGUM 241246
MTRGUM
SPECI PGUM 241246Z 08007KT 10SM SCT022 29/24 A2997 RMK AO2





000
SAGM31 PGUM 241231
MTRGUM
SPECI PGUM 241230Z 09006KT 10SM BKN022 29/24 A2998 RMK AO2





000
SAGM31 PGUM 241201
MTRGUM
SPECI PGUM 241201Z 08006KT 10SM SCT020 29/24 A2998 RMK AO2





000
SAGM31 PGUM 241154
MTRGUM
METAR PGUM 241154Z 08007KT 10SM BKN022 29/24 A2998 RMK AO2 SLP143
T02890239 10311 20289 51013





000
SAGM31 PGUM 241054
MTRGUM
METAR PGUM 241054Z 07004KT 10SM FEW020 29/24 A2997 RMK AO2 SLP138
T02890239





000
SAGM31 PGUM 240954
MTRGUM
METAR PGUM 240954Z 08004KT 10SM CLR 29/24 A2996 RMK AO2 SLP137
T02890239





000
SAGM31 PGUM 240855
MTRGUM
METAR PGUM 240854Z 10005KT 10SM CLR 29/23 A2994 RMK AO2 SLP131
T02940233 53013





000
SAGM31 PGUM 240554
MTRGUM
METAR PGUM 240554Z 13007KT 10SM FEW020 31/23 A2990 RMK AO2 SLP118
T03110228 10328 20306 56012





000
SAGM31 PGUM 240055
MTRGUM
METAR PGUM 240054Z 11011KT 10SM CLR 32/21 A2995 RMK AO2 SLP134
T03170211 $





000
SAGM31 PGUM 232355
MTRGUM
METAR PGUM 232354Z 07011KT 10SM FEW020 32/21 A2995 RMK AO2 SLP133
T03170211 10317 20256 51001 $





000
SAGM31 PGUM 232055
MTRGUM
METAR PGUM 232054Z 06007KT 10SM CLR 28/22 A2995 RMK AO2 SLP133
T02780222 53011 $





000
SAGM31 PGUM 231855
MTRGUM
METAR PGUM 231854Z 08007KT 10SM CLR 27/22 A2992 RMK AO2 SLP123
T02720222





000
SAGM31 PGUM 231455
MTRGUM
METAR PGUM 231454Z 08004KT 10SM CLR 28/22 A2995 RMK AO2 SLP132
T02780222 58002





000
SAGM31 PGUM 231354
MTRGUM
METAR PGUM 231354Z 08004KT 10SM CLR 28/22 A2995 RMK AO2 SLP134
T02830222 403220267





000
SAGM31 PGUM 231254
MTRGUM
METAR PGUM 231254Z 09003KT 10SM FEW025 28/22 A2996 RMK AO2 SLP139
T02780222





000
SAGM31 PGUM 231155
MTRGUM
METAR PGUM 231154Z 09004KT 10SM FEW025 28/22 A2995 RMK AO2 SLP134
T02830222 10317 20278 51021





000
SAGM31 PGUM 231054
MTRGUM
METAR PGUM 231054Z 06005KT 10SM CLR 28/22 A2994 RMK AO2 SLP130
T02830222





000
SAGM31 PGUM 230754
MTRGUM
METAR PGUM 230754Z 12006KT 10SM SCT033 29/22 A2988 RMK AO2 SLP110
T02940217





000
SAGM31 PGUM 230655
MTRGUM
METAR PGUM 230654Z 36005KT 10SM FEW025 31/20 A2986 RMK AO2 SLP102
T03110200 $





000
SAGM31 PGUM 230606
MTRGUM
METAR PGUM 230554Z COR 35006KT 10SM FEW022 32/22 A2986 RMK AO2
SLP102 T03210218 10322 20289 56014 PNO $





000
SAGM31 PGUM 230554
MTRGUM
METAR PGUM 230554Z 35006KT 10SM FEW022 32/22 A2986 RMK AO2 SLP102
6//// T03210218 10322 20289 56014 PNO $





000
SAGM31 PGUM 230455
MTRGUM
METAR PGUM 230454Z 00000KT 10SM FEW022 31/23 A2987 RMK AO2 SLP107
T03120228 PNO $





000
SAGM31 PGUM 230354
MTRGUM
METAR PGUM 230354Z 13006KT 10SM FEW022 32/23 A2989 RMK AO2 SLP111
T03210226 PNO $





000
SAGM31 PGUM 230255
MTRGUM
METAR PGUM 230254Z 14006KT 10SM CLR 32/23 A2990 RMK AO2 SLP117
T03160226 58017 PNO $





000
SAGM31 PGUM 230154
MTRGUM
METAR PGUM 230154Z 13009KT 10SM FEW024 31/22 A2992 RMK AO2 SLP123
T03140221 PNO $





000
SAGM31 PGUM 230055
MTRGUM
METAR PGUM 230054Z 11007KT 10SM FEW024 31/22 A2994 RMK AO2 SLP130
T03090223 PNO $





000
SAGM31 PGUM 222355
MTRGUM
METAR PGUM 222354Z 10008KT 10SM FEW027 31/21 A2995 RMK AO2 SLP134
T03110206 10311 20267 50001





000
SAGM31 PGUM 222055
MTRGUM
METAR PGUM 222054Z 09004KT 10SM CLR 27/22 A2995 RMK AO2 SLP134
T02720222 53008





000
SAGM31 PGUM 221755
MTRGUM
METAR PGUM 221754Z 10004KT 10SM CLR 27/22 A2993 RMK AO2 SLP125
T02720217 10278 20272 55004





000
SAGM31 PGUM 221655
MTRGUM
METAR PGUM 221654Z 09004KT 10SM SCT021 BKN026 BKN034 27/22 A2992 RMK
AO2 SLP125 T02720217





000
SAGM31 PGUM 221554
MTRGUM
METAR PGUM 221554Z 09006KT 10SM CLR 27/22 A2993 RMK AO2 SLP126
T02720217





000
SAGM31 PGUM 221455
MTRGUM
METAR PGUM 221454Z 10004KT 10SM FEW022 27/22 A2994 RMK AO2 SLP130
T02720217 58000





000
SAGM31 PGUM 221254
MTRGUM
METAR PGUM 221254Z 10006KT 10SM FEW021 28/22 A2995 RMK AO2 SLP132
T02780217





000
SAGM31 PGUM 221155
MTRGUM
METAR PGUM 221154Z 10007KT 10SM FEW023 28/22 A2994 RMK AO2 SLP130
T02780217 10306 20278 51016





000
SAGM31 PGUM 220655
MTRGUM
METAR PGUM 220654Z 10011KT 10SM SCT023 30/22 A2988 RMK AO2 SLP109
T03000217





    US Dept of Commerce
    National Oceanic and Atmospheric Administration
    National Weather Service
    1325 East West Highway
    Silver Spring, MD 20910
    Page Author: NWS Internet Services Team
Disclaimer
Information Quality
Credits
Glossary
Privacy Policy
Freedom of Information Act (FOIA)
About Us
Career Opportunities